• Join FlightAware (Why Join?)
  • Login
  • US Flag 
05:43AM EDT


 

Airport Tracker/Info


-or-


 

Live Flight TrackerFlight Track Log ✈ UCA3596 ✈ 13-Oct-2013 ✈ KIAD - KBGM

Flight Track Log - Related Links

Times and Time Zones

All times are in EDT time to prevent confusion due to time zone crossing. See the UCA3596 flight status page for this flight to view local times or setup timezone preferences in your user account.

Time Position Orientation Groundspeed Altitude Reporting Facility
EDT Latitude Longitude Course Direction KTS MPH feet Rate Location/Type
01:10PM 39.3746 -77.2745 19° North  Level Estimated
01:11PM 39.4388 -77.2464 19° North  Level Estimated
01:12PM 39.5030 -77.2183 19° North  Level Estimated
01:13PM 39.5671 -77.1901 19° North  Level Estimated
01:14PM 39.6313 -77.1619 19° North  Level Estimated
01:15PM 39.6955 -77.1336 19° North  Level Estimated
01:16PM 39.7596 -77.1053 19° North  Level Estimated
01:17PM 39.8238 -77.0769 19° North  Level Estimated
01:18PM 39.8879 -77.0485 19° North  Level Estimated
01:19PM 39.9520 -77.0200 19° North  Level Estimated
01:20PM 40.0162 -76.9914 19° North  Level Estimated
01:21PM 40.0803 -76.9628 19° North  Level Estimated
01:22PM 40.1444 -76.9342 19° North  Level Estimated
01:23PM 40.2085 -76.9055 19° North  Level Estimated
01:24PM 40.2726 -76.8767 19° North  Level Estimated
01:25PM 40.3367 -76.8479 19° North  Level Estimated
01:26PM 40.4008 -76.8190 19° North  Level Estimated
01:27PM 40.4649 -76.7901 19° North  Level Estimated
01:28PM 40.5289 -76.7611 19° North  Level Estimated
01:29PM 40.5930 -76.7321 19° North  Level Estimated
01:30PM 40.6570 -76.7030 19° North  Level Estimated
01:31PM 40.7211 -76.6738 19° North  Level Estimated
01:32PM 40.7851 -76.6446 19° North  Level Estimated
01:33PM 40.8492 -76.6154 19° North  Level Estimated
01:34PM 40.9132 -76.5861 19° North  Level Estimated
01:35PM 40.9772 -76.5567 19° North  Level Estimated
01:36PM 41.0412 -76.5273 19° North  Level Estimated
01:37PM 41.1052 -76.4978 19° North  Level Estimated
01:38PM 41.1692 -76.4682 19° North  Level Estimated
01:39PM 41.2332 -76.4386 19° North  Level Estimated
01:40PM 41.2972 -76.4090 19° North  Level Estimated
01:41PM 41.3611 -76.3792 19° North  Level Estimated
01:42PM 41.4251 -76.3494 19° North  Level Estimated
01:43PM 41.4891 -76.3196 19° North  Level Estimated
01:44PM 41.5530 -76.2897 19° North  Level Estimated
01:45PM 41.6169 -76.2598 19° North  Level Estimated
01:46PM 41.6809 -76.2297 19° North  Level Estimated
01:47PM 41.7448 -76.1997 19° North  Level Estimated
01:48PM 41.8087 -76.1695 19° North  Level Estimated
01:49PM 41.8726 -76.1393 19° North  Level Estimated
01:50PM 41.9365 -76.1091 19° North  Level Estimated
01:51PM 42.0004 -76.0788 19° North  Level Estimated
01:52PM 42.0643 -76.0484 19° North  Level Estimated
01:53PM 42.1282 -76.0179 19° North  Level Estimated
01:54PM 42.1921 -75.9874 19° North  Level Estimated
01:55PM 42.2084 -75.9796 19° North  Level Estimated
01:56PM 42.2084 -75.9796 35° Northeast  Level Estimated
01:57PM 42.2084 -75.9796 35° Northeast  Level Estimated
01:58PM 42.2084 -75.9796 35° Northeast  Level Estimated
01:59PM 42.2084 -75.9796 35° Northeast  Level Estimated
02:00PM 42.2084 -75.9796 35° Northeast  Level Estimated
02:01PM 42.2084 -75.9796 35° Northeast  Level Estimated
02:02PM 42.2084 -75.9796 35° Northeast  Level Estimated
02:03PM 42.2084 -75.9796 35° Northeast  Level Estimated
02:04PM 42.2084 -75.9796 35° Northeast  Level Estimated
02:05PM 42.2084 -75.9796 35° Northeast  Level Estimated
02:06PM 42.2084 -75.9796 35° Northeast  Level Estimated
02:07PM 42.2084 -75.9796 35° Northeast  Level Estimated
02:08PM 42.2084 -75.9796 35° Northeast  Level Estimated